sensor_id;sensor_type;location;lat;lon;timestamp;P1;durP1;ratioP1;P2;durP2;ratioP2
71038;SDS011;58692;43.212;27.908;2023-04-30T00:00:22;32.65;;;15.85;;
71038;SDS011;58692;43.212;27.908;2023-04-30T00:02:47;28.90;;;14.00;;
71038;SDS011;58692;43.212;27.908;2023-04-30T00:05:13;26.23;;;14.20;;
71038;SDS011;58692;43.212;27.908;2023-04-30T00:07:38;23.37;;;12.47;;
71038;SDS011;58692;43.212;27.908;2023-04-30T00:10:08;25.13;;;13.32;;
71038;SDS011;58692;43.212;27.908;2023-04-30T00:12:34;20.65;;;11.63;;
71038;SDS011;58692;43.212;27.908;2023-04-30T00:15:00;24.00;;;12.13;;
71038;SDS011;58692;43.212;27.908;2023-04-30T00:17:25;24.37;;;12.50;;
71038;SDS011;58692;43.212;27.908;2023-04-30T00:19:51;22.17;;;12.47;;
71038;SDS011;58692;43.212;27.908;2023-04-30T00:22:16;23.57;;;12.33;;
71038;SDS011;58692;43.212;27.908;2023-04-30T00:24:42;21.05;;;11.10;;
71038;SDS011;58692;43.212;27.908;2023-04-30T00:27:07;19.73;;;11.10;;
71038;SDS011;58692;43.212;27.908;2023-04-30T00:29:33;18.73;;;11.03;;
71038;SDS011;58692;43.212;27.908;2023-04-30T00:31:58;20.70;;;10.95;;
71038;SDS011;58692;43.212;27.908;2023-04-30T00:34:24;21.33;;;10.87;;
71038;SDS011;58692;43.212;27.908;2023-04-30T00:36:49;21.90;;;11.10;;
71038;SDS011;58692;43.212;27.908;2023-04-30T00:39:15;19.02;;;10.88;;
71038;SDS011;58692;43.212;27.908;2023-04-30T00:41:40;16.97;;;10.27;;
71038;SDS011;58692;43.212;27.908;2023-04-30T00:44:07;21.42;;;10.63;;
71038;SDS011;58692;43.212;27.908;2023-04-30T00:46:32;22.23;;;10.87;;
71038;SDS011;58692;43.212;27.908;2023-04-30T00:48:58;19.33;;;10.10;;
71038;SDS011;58692;43.212;27.908;2023-04-30T00:51:26;17.08;;;10.75;;
71038;SDS011;58692;43.212;27.908;2023-04-30T00:53:53;19.35;;;11.05;;
71038;SDS011;58692;43.212;27.908;2023-04-30T00:56:18;21.00;;;10.60;;
71038;SDS011;58692;43.212;27.908;2023-04-30T00:58:45;19.48;;;10.95;;
71038;SDS011;58692;43.212;27.908;2023-04-30T01:01:10;22.65;;;10.88;;
71038;SDS011;58692;43.212;27.908;2023-04-30T01:03:36;21.00;;;10.50;;
71038;SDS011;58692;43.212;27.908;2023-04-30T01:06:02;18.15;;;10.05;;
71038;SDS011;58692;43.212;27.908;2023-04-30T01:08:29;24.40;;;10.70;;
71038;SDS011;58692;43.212;27.908;2023-04-30T01:11:05;19.13;;;10.53;;
71038;SDS011;58692;43.212;27.908;2023-04-30T01:13:41;20.00;;;10.02;;
71038;SDS011;58692;43.212;27.908;2023-04-30T01:16:18;21.88;;;10.15;;
71038;SDS011;58692;43.212;27.908;2023-04-30T01:18:51;20.95;;;9.93;;
71038;SDS011;58692;43.212;27.908;2023-04-30T01:21:21;19.80;;;10.05;;
71038;SDS011;58692;43.212;27.908;2023-04-30T01:29:40;19.17;;;9.68;;
71038;SDS011;58692;43.212;27.908;2023-04-30T01:32:08;19.13;;;9.40;;
71038;SDS011;58692;43.212;27.908;2023-04-30T01:34:35;20.00;;;10.20;;
71038;SDS011;58692;43.212;27.908;2023-04-30T01:39:36;18.80;;;10.20;;
71038;SDS011;58692;43.212;27.908;2023-04-30T01:42:09;19.75;;;10.10;;
71038;SDS011;58692;43.212;27.908;2023-04-30T01:50:24;21.05;;;9.65;;
71038;SDS011;58692;43.212;27.908;2023-04-30T01:52:52;19.23;;;9.52;;
71038;SDS011;58692;43.212;27.908;2023-04-30T01:58:08;23.17;;;9.90;;
71038;SDS011;58692;43.212;27.908;2023-04-30T02:00:35;21.60;;;9.40;;
71038;SDS011;58692;43.212;27.908;2023-04-30T02:03:00;18.23;;;10.27;;
71038;SDS011;58692;43.212;27.908;2023-04-30T02:05:26;20.73;;;9.63;;
71038;SDS011;58692;43.212;27.908;2023-04-30T02:07:52;21.35;;;10.63;;
71038;SDS011;58692;43.212;27.908;2023-04-30T02:10:19;19.83;;;10.00;;
71038;SDS011;58692;43.212;27.908;2023-04-30T02:12:46;18.73;;;10.13;;
71038;SDS011;58692;43.212;27.908;2023-04-30T02:15:11;17.60;;;9.77;;
71038;SDS011;58692;43.212;27.908;2023-04-30T02:17:37;20.92;;;9.80;;
71038;SDS011;58692;43.212;27.908;2023-04-30T02:20:03;16.87;;;9.60;;
71038;SDS011;58692;43.212;27.908;2023-04-30T02:22:28;23.25;;;9.85;;
71038;SDS011;58692;43.212;27.908;2023-04-30T02:24:54;19.43;;;9.20;;
71038;SDS011;58692;43.212;27.908;2023-04-30T02:27:20;18.13;;;9.88;;
71038;SDS011;58692;43.212;27.908;2023-04-30T02:29:48;18.58;;;9.25;;
71038;SDS011;58692;43.212;27.908;2023-04-30T02:32:13;19.90;;;9.63;;
71038;SDS011;58692;43.212;27.908;2023-04-30T02:34:40;20.30;;;9.82;;
71038;SDS011;58692;43.212;27.908;2023-04-30T02:37:05;19.88;;;9.02;;
71038;SDS011;58692;43.212;27.908;2023-04-30T02:39:31;19.17;;;9.60;;
71038;SDS011;58692;43.212;27.908;2023-04-30T02:41:57;20.48;;;10.02;;
71038;SDS011;58692;43.212;27.908;2023-04-30T02:44:22;17.93;;;10.03;;
71038;SDS011;58692;43.212;27.908;2023-04-30T02:46:48;20.23;;;10.35;;
71038;SDS011;58692;43.212;27.908;2023-04-30T02:49:13;21.50;;;11.43;;
71038;SDS011;58692;43.212;27.908;2023-04-30T02:51:39;22.17;;;10.73;;
71038;SDS011;58692;43.212;27.908;2023-04-30T02:54:04;22.13;;;11.63;;
71038;SDS011;58692;43.212;27.908;2023-04-30T02:56:30;22.03;;;11.53;;
71038;SDS011;58692;43.212;27.908;2023-04-30T02:58:55;23.43;;;12.43;;
71038;SDS011;58692;43.212;27.908;2023-04-30T03:01:21;20.98;;;11.48;;
71038;SDS011;58692;43.212;27.908;2023-04-30T03:03:46;22.20;;;11.47;;
71038;SDS011;58692;43.212;27.908;2023-04-30T03:06:12;21.17;;;10.87;;
71038;SDS011;58692;43.212;27.908;2023-04-30T03:08:37;19.63;;;10.53;;
71038;SDS011;58692;43.212;27.908;2023-04-30T03:11:03;18.40;;;10.30;;
71038;SDS011;58692;43.212;27.908;2023-04-30T03:13:28;17.43;;;9.70;;
71038;SDS011;58692;43.212;27.908;2023-04-30T03:15:57;18.67;;;10.50;;
71038;SDS011;58692;43.212;27.908;2023-04-30T03:18:23;18.27;;;10.32;;
71038;SDS011;58692;43.212;27.908;2023-04-30T03:20:49;19.08;;;10.60;;
71038;SDS011;58692;43.212;27.908;2023-04-30T03:23:15;17.57;;;10.13;;
71038;SDS011;58692;43.212;27.908;2023-04-30T03:25:40;19.02;;;10.25;;
71038;SDS011;58692;43.212;27.908;2023-04-30T03:28:06;18.63;;;10.17;;
71038;SDS011;58692;43.212;27.908;2023-04-30T03:30:31;19.40;;;9.93;;
71038;SDS011;58692;43.212;27.908;2023-04-30T03:32:57;21.35;;;10.93;;
71038;SDS011;58692;43.212;27.908;2023-04-30T03:35:22;17.37;;;9.80;;
71038;SDS011;58692;43.212;27.908;2023-04-30T03:37:48;18.60;;;10.17;;
71038;SDS011;58692;43.212;27.908;2023-04-30T03:40:13;24.17;;;11.85;;
71038;SDS011;58692;43.212;27.908;2023-04-30T03:42:39;19.13;;;11.23;;
71038;SDS011;58692;43.212;27.908;2023-04-30T03:45:04;23.93;;;11.63;;
71038;SDS011;58692;43.212;27.908;2023-04-30T03:47:30;20.98;;;10.75;;
71038;SDS011;58692;43.212;27.908;2023-04-30T03:49:56;21.58;;;11.90;;
71038;SDS011;58692;43.212;27.908;2023-04-30T03:52:22;23.37;;;11.57;;
71038;SDS011;58692;43.212;27.908;2023-04-30T03:54:47;23.57;;;11.90;;
71038;SDS011;58692;43.212;27.908;2023-04-30T03:57:13;20.88;;;11.93;;
71038;SDS011;58692;43.212;27.908;2023-04-30T03:59:39;21.50;;;11.47;;
71038;SDS011;58692;43.212;27.908;2023-04-30T04:02:05;22.33;;;11.60;;
71038;SDS011;58692;43.212;27.908;2023-04-30T04:04:33;21.20;;;10.90;;
71038;SDS011;58692;43.212;27.908;2023-04-30T04:06:59;19.17;;;10.57;;
71038;SDS011;58692;43.212;27.908;2023-04-30T04:09:27;19.67;;;9.90;;
71038;SDS011;58692;43.212;27.908;2023-04-30T04:11:52;22.67;;;13.53;;
71038;SDS011;58692;43.212;27.908;2023-04-30T04:14:18;44.13;;;21.50;;
71038;SDS011;58692;43.212;27.908;2023-04-30T04:16:43;28.77;;;18.37;;
71038;SDS011;58692;43.212;27.908;2023-04-30T04:19:09;25.40;;;15.50;;
71038;SDS011;58692;43.212;27.908;2023-04-30T04:21:36;20.98;;;12.40;;
71038;SDS011;58692;43.212;27.908;2023-04-30T04:24:04;23.55;;;10.98;;
71038;SDS011;58692;43.212;27.908;2023-04-30T04:26:34;19.00;;;10.50;;
71038;SDS011;58692;43.212;27.908;2023-04-30T04:29:00;20.02;;;9.93;;
71038;SDS011;58692;43.212;27.908;2023-04-30T04:31:28;17.30;;;10.38;;
71038;SDS011;58692;43.212;27.908;2023-04-30T04:33:54;20.03;;;9.60;;
71038;SDS011;58692;43.212;27.908;2023-04-30T04:36:24;16.02;;;9.68;;
71038;SDS011;58692;43.212;27.908;2023-04-30T04:38:52;18.60;;;10.15;;
71038;SDS011;58692;43.212;27.908;2023-04-30T04:41:17;18.63;;;10.25;;
71038;SDS011;58692;43.212;27.908;2023-04-30T04:43:43;20.40;;;10.50;;
71038;SDS011;58692;43.212;27.908;2023-04-30T04:46:09;17.80;;;10.20;;
71038;SDS011;58692;43.212;27.908;2023-04-30T04:48:35;19.27;;;10.50;;
71038;SDS011;58692;43.212;27.908;2023-04-30T04:51:00;20.73;;;11.02;;
71038;SDS011;58692;43.212;27.908;2023-04-30T04:53:26;18.87;;;11.20;;
71038;SDS011;58692;43.212;27.908;2023-04-30T04:55:51;22.13;;;11.17;;
71038;SDS011;58692;43.212;27.908;2023-04-30T04:58:16;19.23;;;11.23;;
71038;SDS011;58692;43.212;27.908;2023-04-30T05:00:42;20.87;;;12.20;;
71038;SDS011;58692;43.212;27.908;2023-04-30T05:03:09;20.42;;;12.73;;
71038;SDS011;58692;43.212;27.908;2023-04-30T05:05:34;19.83;;;12.70;;
71038;SDS011;58692;43.212;27.908;2023-04-30T05:08:00;23.08;;;12.88;;
71038;SDS011;58692;43.212;27.908;2023-04-30T05:10:25;18.10;;;11.50;;
71038;SDS011;58692;43.212;27.908;2023-04-30T05:12:51;21.33;;;12.73;;
71038;SDS011;58692;43.212;27.908;2023-04-30T05:15:16;21.38;;;11.57;;
71038;SDS011;58692;43.212;27.908;2023-04-30T05:17:42;18.73;;;11.23;;
71038;SDS011;58692;43.212;27.908;2023-04-30T05:20:08;23.00;;;10.67;;
71038;SDS011;58692;43.212;27.908;2023-04-30T05:22:34;14.88;;;10.23;;
71038;SDS011;58692;43.212;27.908;2023-04-30T05:24:59;16.20;;;9.83;;
71038;SDS011;58692;43.212;27.908;2023-04-30T05:27:25;17.83;;;9.80;;
71038;SDS011;58692;43.212;27.908;2023-04-30T05:29:51;17.85;;;9.73;;
71038;SDS011;58692;43.212;27.908;2023-04-30T05:32:16;15.80;;;9.50;;
71038;SDS011;58692;43.212;27.908;2023-04-30T05:34:42;16.17;;;9.53;;
71038;SDS011;58692;43.212;27.908;2023-04-30T05:37:07;17.30;;;10.10;;
71038;SDS011;58692;43.212;27.908;2023-04-30T05:39:33;17.58;;;10.20;;
71038;SDS011;58692;43.212;27.908;2023-04-30T05:41:58;17.70;;;10.27;;
71038;SDS011;58692;43.212;27.908;2023-04-30T05:44:24;16.97;;;10.07;;
71038;SDS011;58692;43.212;27.908;2023-04-30T05:46:49;16.70;;;10.48;;
71038;SDS011;58692;43.212;27.908;2023-04-30T05:49:15;17.07;;;10.47;;
71038;SDS011;58692;43.212;27.908;2023-04-30T05:51:40;17.42;;;9.80;;
71038;SDS011;58692;43.212;27.908;2023-04-30T05:54:06;15.93;;;10.03;;
71038;SDS011;58692;43.212;27.908;2023-04-30T05:56:32;18.10;;;10.73;;
71038;SDS011;58692;43.212;27.908;2023-04-30T05:58:57;16.02;;;10.88;;
71038;SDS011;58692;43.212;27.908;2023-04-30T06:01:23;19.43;;;11.10;;
71038;SDS011;58692;43.212;27.908;2023-04-30T06:03:49;17.98;;;11.43;;
71038;SDS011;58692;43.212;27.908;2023-04-30T06:06:14;18.10;;;11.53;;
71038;SDS011;58692;43.212;27.908;2023-04-30T06:08:40;19.80;;;12.20;;
71038;SDS011;58692;43.212;27.908;2023-04-30T06:11:09;20.47;;;11.77;;
71038;SDS011;58692;43.212;27.908;2023-04-30T06:13:36;21.75;;;11.73;;
71038;SDS011;58692;43.212;27.908;2023-04-30T06:16:01;20.07;;;11.30;;
71038;SDS011;58692;43.212;27.908;2023-04-30T06:18:27;17.03;;;11.07;;
71038;SDS011;58692;43.212;27.908;2023-04-30T06:20:52;18.47;;;10.57;;
71038;SDS011;58692;43.212;27.908;2023-04-30T06:23:18;19.47;;;10.63;;
71038;SDS011;58692;43.212;27.908;2023-04-30T06:25:43;14.90;;;9.07;;
71038;SDS011;58692;43.212;27.908;2023-04-30T06:28:08;16.47;;;9.40;;
71038;SDS011;58692;43.212;27.908;2023-04-30T06:30:35;17.83;;;9.00;;
71038;SDS011;58692;43.212;27.908;2023-04-30T06:33:01;16.88;;;8.63;;
71038;SDS011;58692;43.212;27.908;2023-04-30T06:35:26;11.67;;;7.70;;
71038;SDS011;58692;43.212;27.908;2023-04-30T06:37:52;13.98;;;7.68;;
71038;SDS011;58692;43.212;27.908;2023-04-30T06:40:17;14.57;;;7.83;;
71038;SDS011;58692;43.212;27.908;2023-04-30T06:42:43;15.73;;;7.97;;
71038;SDS011;58692;43.212;27.908;2023-04-30T06:45:08;13.90;;;8.18;;
71038;SDS011;58692;43.212;27.908;2023-04-30T06:47:34;13.97;;;7.97;;
71038;SDS011;58692;43.212;27.908;2023-04-30T06:50:02;12.73;;;7.00;;
71038;SDS011;58692;43.212;27.908;2023-04-30T06:52:28;15.68;;;7.47;;
71038;SDS011;58692;43.212;27.908;2023-04-30T06:54:55;15.38;;;5.93;;
71038;SDS011;58692;43.212;27.908;2023-04-30T06:57:20;13.17;;;6.03;;
71038;SDS011;58692;43.212;27.908;2023-04-30T06:59:46;10.02;;;4.45;;
71038;SDS011;58692;43.212;27.908;2023-04-30T07:02:12;6.43;;;2.60;;
71038;SDS011;58692;43.212;27.908;2023-04-30T07:04:37;7.22;;;2.45;;
71038;SDS011;58692;43.212;27.908;2023-04-30T07:07:03;7.63;;;2.83;;
71038;SDS011;58692;43.212;27.908;2023-04-30T07:09:29;5.75;;;2.40;;
71038;SDS011;58692;43.212;27.908;2023-04-30T07:11:54;4.90;;;2.53;;
71038;SDS011;58692;43.212;27.908;2023-04-30T07:14:21;11.52;;;2.92;;
71038;SDS011;58692;43.212;27.908;2023-04-30T07:16:48;8.90;;;2.60;;
71038;SDS011;58692;43.212;27.908;2023-04-30T07:19:14;6.35;;;3.03;;
71038;SDS011;58692;43.212;27.908;2023-04-30T07:21:40;8.18;;;2.63;;
71038;SDS011;58692;43.212;27.908;2023-04-30T07:24:05;7.57;;;3.07;;
71038;SDS011;58692;43.212;27.908;2023-04-30T07:26:31;8.57;;;3.00;;
71038;SDS011;58692;43.212;27.908;2023-04-30T07:28:56;9.10;;;3.55;;
71038;SDS011;58692;43.212;27.908;2023-04-30T07:31:22;7.70;;;2.93;;
71038;SDS011;58692;43.212;27.908;2023-04-30T07:33:47;8.32;;;3.63;;
71038;SDS011;58692;43.212;27.908;2023-04-30T07:36:14;8.13;;;3.77;;
71038;SDS011;58692;43.212;27.908;2023-04-30T07:38:40;8.40;;;3.55;;
71038;SDS011;58692;43.212;27.908;2023-04-30T07:41:06;7.70;;;3.92;;
71038;SDS011;58692;43.212;27.908;2023-04-30T07:43:33;10.17;;;3.50;;
71038;SDS011;58692;43.212;27.908;2023-04-30T07:45:59;6.72;;;3.30;;
71038;SDS011;58692;43.212;27.908;2023-04-30T07:48:25;12.35;;;3.70;;
71038;SDS011;58692;43.212;27.908;2023-04-30T07:50:50;7.83;;;3.30;;
71038;SDS011;58692;43.212;27.908;2023-04-30T07:53:16;5.60;;;3.03;;
71038;SDS011;58692;43.212;27.908;2023-04-30T07:55:42;7.67;;;3.47;;
71038;SDS011;58692;43.212;27.908;2023-04-30T07:58:07;7.43;;;3.10;;
71038;SDS011;58692;43.212;27.908;2023-04-30T08:00:33;8.25;;;3.20;;
71038;SDS011;58692;43.212;27.908;2023-04-30T08:02:58;7.70;;;3.10;;
71038;SDS011;58692;43.212;27.908;2023-04-30T08:05:24;8.43;;;3.40;;
71038;SDS011;58692;43.212;27.908;2023-04-30T08:07:51;8.60;;;3.55;;
71038;SDS011;58692;43.212;27.908;2023-04-30T08:10:16;7.60;;;3.40;;
71038;SDS011;58692;43.212;27.908;2023-04-30T08:12:42;8.70;;;3.30;;
71038;SDS011;58692;43.212;27.908;2023-04-30T08:15:08;6.90;;;3.23;;
71038;SDS011;58692;43.212;27.908;2023-04-30T08:17:34;9.38;;;3.90;;
71038;SDS011;58692;43.212;27.908;2023-04-30T08:20:01;10.07;;;3.35;;
71038;SDS011;58692;43.212;27.908;2023-04-30T08:22:28;8.77;;;3.78;;
71038;SDS011;58692;43.212;27.908;2023-04-30T08:24:54;8.23;;;3.77;;
71038;SDS011;58692;43.212;27.908;2023-04-30T08:27:20;7.65;;;3.30;;
71038;SDS011;58692;43.212;27.908;2023-04-30T08:29:47;8.27;;;3.50;;
71038;SDS011;58692;43.212;27.908;2023-04-30T08:32:12;7.72;;;3.67;;
71038;SDS011;58692;43.212;27.908;2023-04-30T08:34:37;7.70;;;3.83;;
71038;SDS011;58692;43.212;27.908;2023-04-30T08:37:05;7.60;;;3.35;;
71038;SDS011;58692;43.212;27.908;2023-04-30T08:39:32;8.43;;;3.70;;
71038;SDS011;58692;43.212;27.908;2023-04-30T08:41:59;7.63;;;3.27;;
71038;SDS011;58692;43.212;27.908;2023-04-30T08:44:28;6.47;;;3.30;;
71038;SDS011;58692;43.212;27.908;2023-04-30T08:46:54;9.00;;;3.55;;
71038;SDS011;58692;43.212;27.908;2023-04-30T08:49:22;8.05;;;3.10;;
71038;SDS011;58692;43.212;27.908;2023-04-30T08:51:47;6.83;;;3.30;;
71038;SDS011;58692;43.212;27.908;2023-04-30T08:54:13;10.75;;;3.53;;
71038;SDS011;58692;43.212;27.908;2023-04-30T08:56:41;8.90;;;3.72;;
71038;SDS011;58692;43.212;27.908;2023-04-30T08:59:07;8.13;;;3.70;;
71038;SDS011;58692;43.212;27.908;2023-04-30T09:01:33;9.65;;;4.32;;
71038;SDS011;58692;43.212;27.908;2023-04-30T09:03:59;8.85;;;3.60;;
71038;SDS011;58692;43.212;27.908;2023-04-30T09:06:27;11.13;;;3.22;;
71038;SDS011;58692;43.212;27.908;2023-04-30T09:08:53;7.73;;;3.43;;
71038;SDS011;58692;43.212;27.908;2023-04-30T09:11:19;7.78;;;3.95;;
71038;SDS011;58692;43.212;27.908;2023-04-30T09:13:47;7.43;;;3.80;;
71038;SDS011;58692;43.212;27.908;2023-04-30T09:16:14;10.73;;;3.53;;
71038;SDS011;58692;43.212;27.908;2023-04-30T09:18:40;10.50;;;3.55;;
71038;SDS011;58692;43.212;27.908;2023-04-30T09:21:06;10.20;;;3.90;;
71038;SDS011;58692;43.212;27.908;2023-04-30T09:23:33;11.80;;;3.80;;
71038;SDS011;58692;43.212;27.908;2023-04-30T09:25:59;8.00;;;3.53;;
71038;SDS011;58692;43.212;27.908;2023-04-30T09:28:25;10.50;;;3.70;;
71038;SDS011;58692;43.212;27.908;2023-04-30T09:30:53;7.82;;;3.72;;
71038;SDS011;58692;43.212;27.908;2023-04-30T09:33:21;6.80;;;3.35;;
71038;SDS011;58692;43.212;27.908;2023-04-30T09:35:46;7.73;;;3.40;;
71038;SDS011;58692;43.212;27.908;2023-04-30T09:38:24;7.43;;;3.80;;
71038;SDS011;58692;43.212;27.908;2023-04-30T09:40:49;8.02;;;3.90;;
71038;SDS011;58692;43.212;27.908;2023-04-30T09:43:15;7.50;;;3.60;;
71038;SDS011;58692;43.212;27.908;2023-04-30T09:45:41;8.57;;;3.67;;
71038;SDS011;58692;43.212;27.908;2023-04-30T09:48:09;7.38;;;3.63;;
71038;SDS011;58692;43.212;27.908;2023-04-30T09:50:37;8.70;;;3.53;;
71038;SDS011;58692;43.212;27.908;2023-04-30T09:53:05;9.90;;;3.90;;
71038;SDS011;58692;43.212;27.908;2023-04-30T09:55:32;7.50;;;3.60;;
71038;SDS011;58692;43.212;27.908;2023-04-30T09:57:59;8.80;;;3.67;;
71038;SDS011;58692;43.212;27.908;2023-04-30T10:00:29;11.75;;;4.07;;
71038;SDS011;58692;43.212;27.908;2023-04-30T10:02:56;8.93;;;3.70;;
71038;SDS011;58692;43.212;27.908;2023-04-30T10:05:23;9.30;;;3.80;;
71038;SDS011;58692;43.212;27.908;2023-04-30T10:07:49;8.90;;;3.70;;
71038;SDS011;58692;43.212;27.908;2023-04-30T10:10:15;8.43;;;3.30;;
71038;SDS011;58692;43.212;27.908;2023-04-30T10:12:43;8.77;;;3.58;;
71038;SDS011;58692;43.212;27.908;2023-04-30T10:15:15;9.27;;;3.80;;
71038;SDS011;58692;43.212;27.908;2023-04-30T10:17:44;6.65;;;3.50;;
71038;SDS011;58692;43.212;27.908;2023-04-30T10:20:19;8.52;;;3.75;;
71038;SDS011;58692;43.212;27.908;2023-04-30T10:22:47;7.40;;;3.70;;
71038;SDS011;58692;43.212;27.908;2023-04-30T10:25:13;9.38;;;3.47;;
71038;SDS011;58692;43.212;27.908;2023-04-30T10:27:40;6.43;;;3.90;;
71038;SDS011;58692;43.212;27.908;2023-04-30T10:30:06;7.03;;;3.60;;
71038;SDS011;58692;43.212;27.908;2023-04-30T10:32:37;10.93;;;3.67;;
71038;SDS011;58692;43.212;27.908;2023-04-30T10:35:13;8.20;;;3.88;;
71038;SDS011;58692;43.212;27.908;2023-04-30T10:40:37;6.90;;;3.40;;
71038;SDS011;58692;43.212;27.908;2023-04-30T10:43:02;7.20;;;3.67;;
71038;SDS011;58692;43.212;27.908;2023-04-30T10:45:36;10.50;;;3.77;;
71038;SDS011;58692;43.212;27.908;2023-04-30T10:48:02;7.13;;;3.70;;
71038;SDS011;58692;43.212;27.908;2023-04-30T10:50:28;10.02;;;3.95;;
71038;SDS011;58692;43.212;27.908;2023-04-30T10:53:02;8.82;;;4.75;;
71038;SDS011;58692;43.212;27.908;2023-04-30T10:55:28;12.77;;;6.32;;
71038;SDS011;58692;43.212;27.908;2023-04-30T10:57:55;10.23;;;5.47;;
71038;SDS011;58692;43.212;27.908;2023-04-30T11:00:24;10.52;;;3.80;;
71038;SDS011;58692;43.212;27.908;2023-04-30T11:02:55;8.48;;;3.42;;
71038;SDS011;58692;43.212;27.908;2023-04-30T11:05:32;6.80;;;3.58;;
71038;SDS011;58692;43.212;27.908;2023-04-30T11:08:00;9.07;;;3.30;;
71038;SDS011;58692;43.212;27.908;2023-04-30T11:10:27;8.50;;;3.40;;
71038;SDS011;58692;43.212;27.908;2023-04-30T11:12:55;10.27;;;3.65;;
71038;SDS011;58692;43.212;27.908;2023-04-30T11:15:24;6.80;;;3.80;;
71038;SDS011;58692;43.212;27.908;2023-04-30T11:17:55;10.77;;;3.22;;
71038;SDS011;58692;43.212;27.908;2023-04-30T11:20:23;6.85;;;3.40;;
71038;SDS011;58692;43.212;27.908;2023-04-30T11:25:43;9.33;;;3.90;;
71038;SDS011;58692;43.212;27.908;2023-04-30T11:28:13;9.45;;;4.00;;
71038;SDS011;58692;43.212;27.908;2023-04-30T11:33:24;12.65;;;4.60;;
71038;SDS011;58692;43.212;27.908;2023-04-30T11:35:51;8.18;;;3.72;;
71038;SDS011;58692;43.212;27.908;2023-04-30T11:38:19;8.60;;;3.40;;
71038;SDS011;58692;43.212;27.908;2023-04-30T11:40:47;8.05;;;3.58;;
71038;SDS011;58692;43.212;27.908;2023-04-30T11:43:21;8.27;;;3.42;;
71038;SDS011;58692;43.212;27.908;2023-04-30T11:48:34;7.15;;;3.33;;
71038;SDS011;58692;43.212;27.908;2023-04-30T11:53:45;8.50;;;3.33;;
71038;SDS011;58692;43.212;27.908;2023-04-30T11:56:12;7.85;;;3.28;;
71038;SDS011;58692;43.212;27.908;2023-04-30T11:58:38;8.63;;;3.60;;
71038;SDS011;58692;43.212;27.908;2023-04-30T12:01:05;7.00;;;3.15;;
71038;SDS011;58692;43.212;27.908;2023-04-30T12:03:39;6.80;;;3.20;;
71038;SDS011;58692;43.212;27.908;2023-04-30T12:06:05;8.52;;;3.28;;
71038;SDS011;58692;43.212;27.908;2023-04-30T12:08:34;11.20;;;3.60;;
71038;SDS011;58692;43.212;27.908;2023-04-30T12:10:59;9.45;;;3.17;;
71038;SDS011;58692;43.212;27.908;2023-04-30T12:13:25;7.50;;;3.30;;
71038;SDS011;58692;43.212;27.908;2023-04-30T12:15:58;9.95;;;3.53;;
71038;SDS011;58692;43.212;27.908;2023-04-30T12:18:25;15.60;;;3.70;;
71038;SDS011;58692;43.212;27.908;2023-04-30T12:20:51;10.18;;;3.55;;
71038;SDS011;58692;43.212;27.908;2023-04-30T12:23:17;6.73;;;3.30;;
71038;SDS011;58692;43.212;27.908;2023-04-30T12:25:43;7.80;;;3.55;;
71038;SDS011;58692;43.212;27.908;2023-04-30T12:28:09;11.48;;;3.10;;
71038;SDS011;58692;43.212;27.908;2023-04-30T12:30:36;6.35;;;3.13;;
71038;SDS011;58692;43.212;27.908;2023-04-30T12:33:01;7.93;;;3.60;;
71038;SDS011;58692;43.212;27.908;2023-04-30T12:35:28;8.27;;;3.35;;
71038;SDS011;58692;43.212;27.908;2023-04-30T12:40:39;10.77;;;3.75;;
71038;SDS011;58692;43.212;27.908;2023-04-30T12:43:13;8.80;;;3.40;;
71038;SDS011;58692;43.212;27.908;2023-04-30T12:45:41;6.80;;;3.10;;
71038;SDS011;58692;43.212;27.908;2023-04-30T12:48:08;9.00;;;3.10;;
71038;SDS011;58692;43.212;27.908;2023-04-30T12:50:33;9.70;;;4.00;;
71038;SDS011;58692;43.212;27.908;2023-04-30T12:53:02;7.70;;;3.80;;
71038;SDS011;58692;43.212;27.908;2023-04-30T12:55:29;7.60;;;3.97;;
71038;SDS011;58692;43.212;27.908;2023-04-30T12:58:03;8.25;;;3.63;;
71038;SDS011;58692;43.212;27.908;2023-04-30T13:00:47;10.65;;;3.85;;
71038;SDS011;58692;43.212;27.908;2023-04-30T13:03:14;10.25;;;4.05;;
71038;SDS011;58692;43.212;27.908;2023-04-30T13:05:42;9.30;;;4.30;;
71038;SDS011;58692;43.212;27.908;2023-04-30T13:08:14;7.67;;;4.20;;
71038;SDS011;58692;43.212;27.908;2023-04-30T13:10:40;8.55;;;4.15;;
71038;SDS011;58692;43.212;27.908;2023-04-30T13:13:06;7.80;;;4.25;;
71038;SDS011;58692;43.212;27.908;2023-04-30T13:15:31;7.63;;;4.10;;
71038;SDS011;58692;43.212;27.908;2023-04-30T13:17:57;7.43;;;3.90;;
71038;SDS011;58692;43.212;27.908;2023-04-30T13:20:22;9.00;;;4.17;;
71038;SDS011;58692;43.212;27.908;2023-04-30T13:22:49;8.00;;;3.75;;
71038;SDS011;58692;43.212;27.908;2023-04-30T13:25:15;10.67;;;4.27;;
71038;SDS011;58692;43.212;27.908;2023-04-30T13:27:41;9.30;;;4.32;;
71038;SDS011;58692;43.212;27.908;2023-04-30T13:30:08;8.73;;;4.20;;
71038;SDS011;58692;43.212;27.908;2023-04-30T13:32:34;9.25;;;4.20;;
71038;SDS011;58692;43.212;27.908;2023-04-30T13:35:01;9.30;;;3.80;;
71038;SDS011;58692;43.212;27.908;2023-04-30T13:37:27;9.38;;;4.35;;
71038;SDS011;58692;43.212;27.908;2023-04-30T13:39:52;8.38;;;4.10;;
71038;SDS011;58692;43.212;27.908;2023-04-30T13:42:18;12.03;;;4.10;;
71038;SDS011;58692;43.212;27.908;2023-04-30T13:44:43;10.97;;;3.97;;
71038;SDS011;58692;43.212;27.908;2023-04-30T13:47:11;8.55;;;3.90;;
71038;SDS011;58692;43.212;27.908;2023-04-30T13:49:37;8.47;;;3.80;;
71038;SDS011;58692;43.212;27.908;2023-04-30T13:52:02;10.80;;;3.97;;
71038;SDS011;58692;43.212;27.908;2023-04-30T13:54:28;8.10;;;3.80;;
71038;SDS011;58692;43.212;27.908;2023-04-30T13:56:53;10.33;;;4.17;;
71038;SDS011;58692;43.212;27.908;2023-04-30T13:59:19;8.82;;;4.10;;
71038;SDS011;58692;43.212;27.908;2023-04-30T14:01:45;9.18;;;4.20;;
71038;SDS011;58692;43.212;27.908;2023-04-30T14:04:11;8.07;;;3.93;;
71038;SDS011;58692;43.212;27.908;2023-04-30T14:06:36;8.88;;;4.18;;
71038;SDS011;58692;43.212;27.908;2023-04-30T14:09:02;9.70;;;4.10;;
71038;SDS011;58692;43.212;27.908;2023-04-30T14:11:28;10.70;;;3.97;;
71038;SDS011;58692;43.212;27.908;2023-04-30T14:13:53;6.73;;;3.70;;
71038;SDS011;58692;43.212;27.908;2023-04-30T14:16:19;9.20;;;3.83;;
71038;SDS011;58692;43.212;27.908;2023-04-30T14:18:45;8.90;;;3.70;;
71038;SDS011;58692;43.212;27.908;2023-04-30T14:21:11;7.43;;;4.00;;
71038;SDS011;58692;43.212;27.908;2023-04-30T14:23:37;9.27;;;4.00;;
71038;SDS011;58692;43.212;27.908;2023-04-30T14:26:03;9.38;;;3.47;;
71038;SDS011;58692;43.212;27.908;2023-04-30T14:28:29;7.78;;;3.75;;
71038;SDS011;58692;43.212;27.908;2023-04-30T14:30:54;7.73;;;4.30;;
71038;SDS011;58692;43.212;27.908;2023-04-30T14:33:20;7.73;;;4.20;;
71038;SDS011;58692;43.212;27.908;2023-04-30T14:35:45;8.50;;;3.97;;
71038;SDS011;58692;43.212;27.908;2023-04-30T14:38:11;8.30;;;4.10;;
71038;SDS011;58692;43.212;27.908;2023-04-30T14:40:38;7.65;;;4.20;;
71038;SDS011;58692;43.212;27.908;2023-04-30T14:43:03;10.47;;;4.60;;
71038;SDS011;58692;43.212;27.908;2023-04-30T14:45:29;8.95;;;4.93;;
71038;SDS011;58692;43.212;27.908;2023-04-30T14:47:56;10.10;;;4.70;;
71038;SDS011;58692;43.212;27.908;2023-04-30T14:50:22;7.55;;;4.10;;
71038;SDS011;58692;43.212;27.908;2023-04-30T14:52:48;8.88;;;4.00;;